createdAt,value
2018-12-22T00:00:23.437Z,97310.09
2018-12-22T00:02:55.015Z,97310.95
2018-12-22T00:05:26.504Z,97319.63
2018-12-22T00:07:58.113Z,97308.05
2018-12-22T00:10:29.617Z,97315.40
2018-12-22T00:13:01.108Z,97307.97
2018-12-22T00:15:32.674Z,97299.42
2018-12-22T00:18:04.159Z,97290.28
2018-12-22T00:20:36.140Z,97299.45
2018-12-22T00:23:07.677Z,97296.74
2018-12-22T00:25:39.155Z,97295.33
2018-12-22T00:28:10.680Z,97296.80
2018-12-22T00:30:42.155Z,97306.12
2018-12-22T00:33:15.675Z,97296.15
2018-12-22T00:35:47.167Z,97292.77
2018-12-22T00:38:18.757Z,97298.41
2018-12-22T00:40:50.361Z,97296.61
2018-12-22T00:43:21.881Z,97313.14
2018-12-22T00:45:53.359Z,97316.05
2018-12-22T00:48:24.977Z,97314.59
2018-12-22T00:50:56.470Z,97311.54
2018-12-22T00:53:28.067Z,97323.55
2018-12-22T00:55:59.621Z,97323.90
2018-12-22T00:58:31.177Z,97317.95
2018-12-22T01:01:02.712Z,97315.02
2018-12-22T01:03:34.284Z,97318.23
2018-12-22T01:06:05.838Z,97312.77
2018-12-22T01:08:37.396Z,97320.49
2018-12-22T01:11:09.012Z,97323.79
2018-12-22T01:13:40.518Z,97324.41
2018-12-22T01:16:12.116Z,97325.02
2018-12-22T01:18:43.624Z,97329.02
2018-12-22T01:21:15.229Z,97331.72
2018-12-22T01:23:46.732Z,97332.56
2018-12-22T01:26:18.125Z,97336.25
2018-12-22T01:28:49.716Z,97334.17
2018-12-22T01:31:21.348Z,97332.05
2018-12-22T01:33:52.838Z,97336.48
2018-12-22T01:36:24.460Z,97332.31
2018-12-22T01:38:55.961Z,97341.80
2018-12-22T01:41:27.553Z,97332.02
2018-12-22T01:43:59.060Z,97336.73
2018-12-22T01:46:30.429Z,97332.72
2018-12-22T01:49:01.853Z,97339.83
2018-12-22T01:51:33.282Z,97342.85
2018-12-22T01:54:04.855Z,97340.28
2018-12-22T01:56:36.268Z,97333.97
2018-12-22T01:59:07.848Z,97338.51
2018-12-22T02:01:39.408Z,97332.23
2018-12-22T02:04:10.969Z,97332.39
2018-12-22T02:06:42.383Z,97334.64
2018-12-22T02:09:13.976Z,97335.13
2018-12-22T02:11:45.381Z,97337.57
2018-12-22T02:14:16.980Z,97339.83
2018-12-22T02:16:48.587Z,97337.11
2018-12-22T02:19:20.103Z,97339.08
2018-12-22T02:21:51.708Z,97335.02
2018-12-22T02:24:23.201Z,97328.78
2018-12-22T02:26:54.813Z,97336.98
2018-12-22T02:29:26.317Z,97335.67
2018-12-22T02:31:57.816Z,97328.91
2018-12-22T02:34:29.402Z,97325.08
2018-12-22T02:37:00.837Z,97324.25
2018-12-22T02:39:32.427Z,97323.61
2018-12-22T02:42:04.376Z,97320.55
2018-12-22T02:44:35.789Z,97312.02
2018-12-22T02:47:07.404Z,97313.82
2018-12-22T02:49:39.100Z,97304.01
2018-12-22T02:52:10.697Z,97297.39
2018-12-22T02:54:42.119Z,97285.16
2018-12-22T02:57:13.704Z,97291.44
2018-12-22T02:59:45.251Z,97308.21
2018-12-22T03:02:16.801Z,97304.62
2018-12-22T03:04:48.352Z,97299.09
2018-12-22T03:07:19.930Z,97301.44
2018-12-22T03:09:51.528Z,97297.88
2018-12-22T03:12:23.027Z,97304.80
2018-12-22T03:14:54.646Z,97304.94
2018-12-22T03:17:26.151Z,97302.63
2018-12-22T03:19:57.749Z,97306.48
2018-12-22T03:22:29.457Z,97301.61
2018-12-22T03:25:01.000Z,97295.36
2018-12-22T03:27:32.459Z,97294.32
2018-12-22T03:30:04.104Z,97285.05
2018-12-22T03:32:35.537Z,97275.23
2018-12-22T03:35:07.206Z,97263.79
2018-12-22T03:37:38.758Z,97275.38
2018-12-22T03:40:10.743Z,97274.48
2018-12-22T03:42:42.286Z,97279.76
2018-12-22T03:45:13.752Z,97273.81
2018-12-22T03:47:45.348Z,97261.50
2018-12-22T03:50:16.867Z,97261.64
2018-12-22T03:52:48.349Z,97261.74
2018-12-22T03:55:19.950Z,97258.95
2018-12-22T03:57:51.501Z,97268.62
2018-12-22T04:00:23.052Z,97243.22
2018-12-22T04:02:54.611Z,97229.82
2018-12-22T04:05:26.166Z,97236.13
2018-12-22T04:07:57.536Z,97242.52
2018-12-22T04:10:29.076Z,97247.45
2018-12-22T04:13:00.530Z,97235.37
2018-12-22T04:15:32.242Z,97241.98
2018-12-22T04:18:03.765Z,97250.56
2018-12-22T04:20:35.242Z,97239.79
2018-12-22T04:23:06.759Z,97234.94
2018-12-22T04:25:38.349Z,97228.19
2018-12-22T04:28:09.855Z,97241.91
2018-12-22T04:30:41.399Z,97238.40
2018-12-22T04:33:12.856Z,97240.36
2018-12-22T04:35:44.408Z,97238.42
2018-12-22T04:38:15.877Z,97234.84
2018-12-22T04:40:47.402Z,97238.24
2018-12-22T04:43:18.868Z,97235.00
2018-12-22T04:45:50.414Z,97235.29
2018-12-22T04:48:21.877Z,97234.63
2018-12-22T04:50:53.416Z,97229.26
2018-12-22T04:53:24.840Z,97228.91
2018-12-22T04:55:56.448Z,97232.13
2018-12-22T04:58:28.097Z,97233.70
2018-12-22T05:00:59.733Z,97240.92
2018-12-22T05:03:31.149Z,97255.55
2018-12-22T05:06:02.739Z,97258.88
2018-12-22T05:08:34.204Z,97243.67
2018-12-22T05:11:05.840Z,97257.17
2018-12-22T05:13:37.253Z,97270.28
2018-12-22T05:16:09.016Z,97264.85
2018-12-22T05:18:40.670Z,97257.47
2018-12-22T05:21:12.175Z,97266.44
2018-12-22T05:23:43.878Z,97272.16
2018-12-22T05:26:15.391Z,97274.73
2018-12-22T05:28:46.987Z,97254.39
2018-12-22T05:31:18.494Z,97265.33
2018-12-22T05:33:49.894Z,97250.29
2018-12-22T05:36:21.476Z,97254.47
2018-12-22T05:38:53.098Z,97261.61
2018-12-22T05:41:24.590Z,97253.48
2018-12-22T05:43:56.214Z,97265.25
2018-12-22T05:46:27.721Z,97256.22
2018-12-22T05:48:59.314Z,97261.84
2018-12-22T05:51:30.813Z,97270.33
2018-12-22T05:54:02.424Z,97276.21
2018-12-22T05:56:33.916Z,97283.70
2018-12-22T05:59:05.570Z,97295.46
2018-12-22T06:01:37.295Z,97294.14
2018-12-22T06:04:08.885Z,97299.52
2018-12-22T06:06:40.354Z,97296.98
2018-12-22T06:09:11.894Z,97297.01
2018-12-22T06:11:43.356Z,97297.30
2018-12-22T06:14:14.894Z,97300.19
2018-12-22T06:16:46.372Z,97295.59
2018-12-22T06:19:17.902Z,97297.52
2018-12-22T06:21:49.363Z,97294.37
2018-12-22T06:24:21.008Z,97301.79
2018-12-22T06:26:52.463Z,97293.17
2018-12-22T06:29:24.079Z,97303.02
2018-12-22T06:31:55.592Z,97284.72
2018-12-22T06:34:27.121Z,97289.41
2018-12-22T06:36:58.594Z,97292.59
2018-12-22T06:39:30.175Z,97307.63
2018-12-22T06:42:01.596Z,97313.90
2018-12-22T06:44:33.199Z,97312.78
2018-12-22T06:47:04.701Z,97307.57
2018-12-22T06:49:36.303Z,97296.80
2018-12-22T06:52:07.806Z,97306.45
2018-12-22T06:54:39.451Z,97320.59
2018-12-22T06:57:10.994Z,97315.83
2018-12-22T06:59:42.728Z,97317.92
2018-12-22T07:02:14.232Z,97326.02
2018-12-22T07:04:45.830Z,97322.12
2018-12-22T07:07:17.347Z,97322.00
2018-12-22T07:09:48.880Z,97311.84
2018-12-22T07:12:20.344Z,97312.00
2018-12-22T07:14:51.875Z,97318.91
2018-12-22T07:17:23.352Z,97332.70
2018-12-22T07:19:54.895Z,97339.13
2018-12-22T07:22:26.398Z,97336.98
2018-12-22T07:24:58.185Z,97342.22
2018-12-22T07:27:29.616Z,97342.03
2018-12-22T07:30:01.208Z,97346.23
2018-12-22T07:32:32.609Z,97346.53
2018-12-22T07:35:04.170Z,97341.70
2018-12-22T07:37:35.674Z,97348.42
2018-12-22T07:40:07.420Z,97355.95
2018-12-22T07:42:39.522Z,97353.21
2018-12-22T07:45:11.187Z,97354.34
2018-12-22T07:47:42.688Z,97351.95
2018-12-22T07:50:14.244Z,97354.53
2018-12-22T07:52:51.623Z,97364.08
2018-12-22T07:55:19.468Z,97365.17
2018-12-22T07:57:50.963Z,97362.05
2018-12-22T08:00:22.471Z,97365.75
2018-12-22T08:02:53.982Z,97363.11
2018-12-22T08:05:25.581Z,97376.64
2018-12-22T08:07:56.986Z,97372.23
2018-12-22T08:10:28.586Z,97371.05
2018-12-22T08:13:00.089Z,97374.39
2018-12-22T08:15:31.497Z,97386.58
2018-12-22T08:18:02.991Z,97391.78
2018-12-22T08:20:34.533Z,97401.78
2018-12-22T08:23:06.086Z,97402.20
2018-12-22T08:25:37.504Z,97406.57
2018-12-22T08:28:09.094Z,97408.38
2018-12-22T08:30:43.632Z,97421.33
2018-12-22T08:33:14.072Z,97426.77
2018-12-22T08:35:45.703Z,97436.96
2018-12-22T08:38:17.128Z,97441.02
2018-12-22T08:40:48.716Z,97428.05
2018-12-22T08:43:21.083Z,97439.83
2018-12-22T08:45:52.631Z,97434.97
2018-12-22T08:48:24.193Z,97442.69
2018-12-22T08:50:55.743Z,97435.06
2018-12-22T08:53:27.296Z,97435.13
2018-12-22T08:55:58.859Z,97442.66
2018-12-22T08:58:30.397Z,97452.30
2018-12-22T09:01:01.972Z,97456.29
2018-12-22T09:03:33.418Z,97459.22
2018-12-22T09:06:05.023Z,97460.75
2018-12-22T09:08:36.516Z,97476.48
2018-12-22T09:11:08.131Z,97478.31
2018-12-22T09:13:39.643Z,97478.48
2018-12-22T09:16:11.240Z,97480.60
2018-12-22T09:18:42.752Z,97493.19
2018-12-22T09:21:14.290Z,97490.39
2018-12-22T09:23:45.974Z,97479.23
2018-12-22T09:26:17.714Z,97488.30
2018-12-22T09:28:49.217Z,97495.76
2018-12-22T09:31:20.821Z,97494.86
2018-12-22T09:33:52.430Z,97490.16
2018-12-22T09:36:23.943Z,97502.00
2018-12-22T09:38:55.735Z,97493.15
2018-12-22T09:41:27.252Z,97498.30
2018-12-22T09:43:58.852Z,97492.16
2018-12-22T09:46:30.347Z,97500.67
2018-12-22T09:49:01.947Z,97505.98
2018-12-22T09:51:33.457Z,97503.13
2018-12-22T09:54:05.052Z,97506.31
2018-12-22T09:56:36.553Z,97508.30
2018-12-22T09:59:08.183Z,97532.89
2018-12-22T10:01:39.681Z,97512.78
2018-12-22T10:04:11.960Z,97515.35
2018-12-22T10:06:43.553Z,97526.23
2018-12-22T10:09:15.058Z,97519.73
2018-12-22T10:11:46.590Z,97520.73
2018-12-22T10:14:18.056Z,97521.50
2018-12-22T10:16:49.604Z,97523.72
2018-12-22T10:19:21.057Z,97526.45
2018-12-22T10:21:52.664Z,97522.30
2018-12-22T10:24:24.177Z,97532.56
2018-12-22T10:26:55.778Z,97529.34
2018-12-22T10:29:27.280Z,97541.73
2018-12-22T10:31:58.881Z,97538.36
2018-12-22T10:34:30.460Z,97529.18
2018-12-22T10:37:02.026Z,97530.98
2018-12-22T10:39:34.268Z,97537.39
2018-12-22T10:42:05.772Z,97529.55
2018-12-22T10:44:37.305Z,97534.92
2018-12-22T10:47:09.224Z,97542.98
2018-12-22T10:49:40.823Z,97549.31
2018-12-22T10:52:12.438Z,97556.75
2018-12-22T10:54:43.956Z,97559.47
2018-12-22T10:57:15.382Z,97550.08
2018-12-22T10:59:46.945Z,97554.92
2018-12-22T11:02:18.358Z,97565.66
2018-12-22T11:04:49.938Z,97562.94
2018-12-22T11:07:21.564Z,97562.13
2018-12-22T11:09:53.576Z,97562.30
2018-12-22T11:12:25.115Z,97549.30
2018-12-22T11:14:56.738Z,97558.83
2018-12-22T11:17:28.324Z,97553.84
2018-12-22T11:19:59.734Z,97566.80
2018-12-22T11:22:31.334Z,97556.02
2018-12-22T11:25:05.010Z,97566.74
2018-12-22T11:27:36.561Z,97575.37
2018-12-22T11:30:13.524Z,97571.57
2018-12-22T11:32:45.042Z,97548.83
2018-12-22T11:35:16.636Z,97560.94
2018-12-22T11:37:48.140Z,97562.51
2018-12-22T11:40:19.680Z,97575.94
2018-12-22T11:42:51.165Z,97572.62
2018-12-22T11:45:22.747Z,97570.53
2018-12-22T11:48:15.454Z,97580.03
2018-12-22T11:50:46.992Z,97606.39
2018-12-22T11:53:18.545Z,97587.91
2018-12-22T11:55:49.959Z,97590.26
2018-12-22T11:58:21.550Z,97589.14
2018-12-22T12:00:52.995Z,97595.75
2018-12-22T12:03:24.553Z,97597.62
2018-12-22T12:05:56.177Z,97613.13
2018-12-22T12:08:27.673Z,97609.45
2018-12-22T12:11:00.514Z,97606.80
2018-12-22T12:13:32.120Z,97616.98
2018-12-22T12:16:21.463Z,97630.65
2018-12-22T12:19:31.635Z,97625.65
2018-12-22T12:22:03.066Z,97645.53
2018-12-22T12:24:34.624Z,97678.08
2018-12-22T12:27:06.421Z,97677.16
2018-12-22T12:29:38.056Z,97692.19
2018-12-22T12:32:09.719Z,97689.52
2018-12-22T12:34:41.163Z,97693.95
2018-12-22T12:37:12.703Z,97707.25
2018-12-22T12:39:44.331Z,97710.34
2018-12-22T12:42:16.314Z,97709.20
2018-12-22T12:44:47.914Z,97716.30
2018-12-22T12:47:19.523Z,97722.59
2018-12-22T12:49:51.008Z,97715.94
2018-12-22T12:52:22.614Z,97709.33
2018-12-22T12:54:54.130Z,97711.70
2018-12-22T12:57:27.109Z,97719.12
2018-12-22T12:59:58.762Z,97733.31
2018-12-22T13:02:30.163Z,97737.05
2018-12-22T13:05:01.752Z,97743.84
2018-12-22T13:07:33.170Z,97752.13
2018-12-22T13:10:04.998Z,97754.41
2018-12-22T13:12:58.282Z,97767.61
2018-12-22T13:15:29.642Z,97774.83
2018-12-22T13:18:01.229Z,97783.33
2018-12-22T13:20:32.783Z,97779.48
2018-12-22T13:23:04.379Z,97779.62
2018-12-22T13:25:35.751Z,97787.42
2018-12-22T13:28:07.351Z,97784.76
2018-12-22T13:30:38.759Z,97780.23
2018-12-22T13:33:10.617Z,97788.20
2018-12-22T13:35:42.279Z,97793.25
2018-12-22T13:38:13.765Z,97801.16
2018-12-22T13:40:45.525Z,97810.51
2018-12-22T13:43:16.994Z,97817.48
2018-12-22T13:45:48.551Z,97820.95
2018-12-22T13:48:20.302Z,97822.08
2018-12-22T13:50:52.162Z,97830.41
2018-12-22T13:53:23.875Z,97829.91
2018-12-22T13:55:55.375Z,97832.18
2018-12-22T13:58:28.210Z,97843.00
2018-12-22T14:00:59.765Z,97838.89
2018-12-22T14:03:37.117Z,97847.55
2018-12-22T14:06:17.505Z,97847.55
2018-12-22T14:08:49.013Z,97850.30
2018-12-22T14:11:20.614Z,97849.31
2018-12-22T14:13:52.119Z,97855.29
2018-12-22T14:16:40.923Z,97846.75
2018-12-22T14:19:14.163Z,97846.48
2018-12-22T14:21:45.713Z,97854.29
2018-12-22T14:24:53.220Z,97865.75
2018-12-22T14:27:24.655Z,97865.22
2018-12-22T14:29:56.218Z,97869.22
2018-12-22T14:32:27.842Z,97862.39
2018-12-22T14:35:53.765Z,97859.13
2018-12-22T14:38:25.308Z,97862.53
2018-12-22T14:40:56.810Z,97852.91
2018-12-22T14:43:28.353Z,97859.19
2018-12-22T14:45:59.990Z,97865.31
2018-12-22T14:48:31.492Z,97863.17
2018-12-22T14:51:03.121Z,97863.52
2018-12-22T14:53:34.597Z,97889.47
2018-12-22T14:56:06.454Z,97895.27
2018-12-22T14:58:38.817Z,97895.53
2018-12-22T15:01:10.433Z,97903.84
2018-12-22T15:03:41.930Z,97919.08
2018-12-22T15:06:13.334Z,97929.63
2018-12-22T15:08:44.919Z,97933.80
2018-12-22T15:11:16.479Z,97931.52
2018-12-22T15:13:48.028Z,97921.44
2018-12-22T15:16:19.450Z,97923.59
2018-12-22T15:18:51.037Z,97926.79
2018-12-22T15:21:22.664Z,97930.44
2018-12-22T15:23:54.154Z,97933.80
2018-12-22T15:26:25.759Z,97936.75
2018-12-22T15:28:57.270Z,97934.83
2018-12-22T15:31:28.666Z,97935.00
2018-12-22T15:34:00.271Z,97932.12
2018-12-22T15:36:31.929Z,97939.23
2018-12-22T15:39:04.258Z,97947.56
2018-12-22T15:41:37.563Z,97955.48
2018-12-22T15:44:09.226Z,97963.02
2018-12-22T15:46:40.852Z,97963.66
2018-12-22T15:49:13.352Z,97967.39
2018-12-22T15:51:44.826Z,97966.32
2018-12-22T15:54:16.378Z,97960.59
2018-12-22T15:56:47.795Z,97965.36
2018-12-22T15:59:19.371Z,97966.02
2018-12-22T16:01:50.800Z,97965.52
2018-12-22T16:04:22.375Z,97962.11
2018-12-22T16:06:54.003Z,97964.61
2018-12-22T16:09:25.484Z,97964.61
2018-12-22T16:11:57.149Z,97972.67
2018-12-22T16:14:28.575Z,97976.13
2018-12-22T16:17:00.157Z,97981.01
2018-12-22T16:19:31.562Z,97972.08
2018-12-22T16:22:03.162Z,97978.20
2018-12-22T16:24:34.571Z,97981.89
2018-12-22T16:27:06.167Z,97979.75
2018-12-22T16:29:43.040Z,97979.81
2018-12-22T16:32:14.456Z,97985.52
2018-12-22T16:34:46.051Z,97977.98
2018-12-22T16:37:17.604Z,97981.56
2018-12-22T16:39:49.143Z,97986.05
2018-12-22T16:42:20.769Z,97990.63
2018-12-22T16:44:52.284Z,97990.45
2018-12-22T16:47:23.877Z,97996.92
2018-12-22T16:49:55.285Z,98004.61
2018-12-22T16:52:26.683Z,98004.28
2018-12-22T16:54:58.278Z,98003.81
2018-12-22T16:57:29.891Z,98007.85
2018-12-22T17:00:01.398Z,98015.75
2018-12-22T17:02:54.012Z,98019.02
2018-12-22T17:05:25.542Z,98020.44
2018-12-22T17:07:56.913Z,98017.98
2018-12-22T17:10:34.587Z,98026.17
2018-12-22T17:13:06.190Z,98026.95
2018-12-22T17:15:39.466Z,98031.76
2018-12-22T17:18:11.099Z,98026.66
2018-12-22T17:20:42.618Z,98030.17
2018-12-22T17:23:37.034Z,98035.14
2018-12-22T17:26:10.361Z,98038.97
2018-12-22T17:28:41.936Z,98035.66
2018-12-22T17:31:13.379Z,98042.64
2018-12-22T17:33:44.932Z,98049.73
2018-12-22T17:36:16.367Z,98053.36
2018-12-22T17:38:48.042Z,98047.29
2018-12-22T17:41:19.620Z,98054.39
2018-12-22T17:43:51.477Z,98054.44
2018-12-22T17:46:23.218Z,98051.19
2018-12-22T17:48:54.674Z,98062.99
2018-12-22T17:51:26.235Z,98056.27
2018-12-22T17:53:57.687Z,98061.45
2018-12-22T17:56:29.198Z,98066.09
2018-12-22T17:59:00.693Z,98067.53
2018-12-22T18:01:32.308Z,98069.80
2018-12-22T18:04:03.798Z,98076.83
2018-12-22T18:06:35.398Z,98071.60
2018-12-22T18:09:08.096Z,98082.11
2018-12-22T18:11:39.539Z,98087.41
2018-12-22T18:14:11.127Z,98083.12
2018-12-22T18:16:42.541Z,98090.92
2018-12-22T18:19:14.130Z,98098.13
2018-12-22T18:21:45.547Z,98097.48
2018-12-22T18:24:17.127Z,98097.53
2018-12-22T18:26:48.756Z,98102.60
2018-12-22T18:29:20.272Z,98105.81
2018-12-22T18:31:51.865Z,98108.97
2018-12-22T18:34:23.383Z,98107.52
2018-12-22T18:36:54.969Z,98110.67
2018-12-22T18:39:27.504Z,98113.32
2018-12-22T18:41:58.954Z,98115.86
2018-12-22T18:44:30.547Z,98111.64
2018-12-22T18:47:02.053Z,98109.95
2018-12-22T18:49:33.806Z,98111.44
2018-12-22T18:52:05.390Z,98112.92
2018-12-22T18:54:37.035Z,98111.56
2018-12-22T18:57:08.711Z,98112.61
2018-12-22T18:59:40.318Z,98120.20
2018-12-22T19:02:11.945Z,98124.52
2018-12-22T19:04:43.453Z,98124.69
2018-12-22T19:07:14.850Z,98128.43
2018-12-22T19:09:49.266Z,98129.50
2018-12-22T19:12:21.124Z,98134.48
2018-12-22T19:14:54.624Z,98130.83
2018-12-22T19:17:26.131Z,98136.94
2018-12-22T19:19:57.729Z,98141.70
2018-12-22T19:22:29.217Z,98139.79
2018-12-22T19:25:00.837Z,98144.98
2018-12-22T19:27:32.332Z,98142.73
2018-12-22T19:30:03.964Z,98150.36
2018-12-22T19:32:35.446Z,98150.69
2018-12-22T19:35:07.435Z,98155.35
2018-12-22T19:37:38.827Z,98161.77
2018-12-22T19:40:10.452Z,98161.59
2018-12-22T19:42:41.818Z,98160.95
2018-12-22T19:45:13.563Z,98163.69
2018-12-22T19:47:44.935Z,98163.59
2018-12-22T19:50:16.515Z,98168.02
2018-12-22T19:52:48.141Z,98172.73
2018-12-22T19:55:19.644Z,98173.71
2018-12-22T19:57:51.248Z,98170.34
2018-12-22T20:00:22.746Z,98173.61
2018-12-22T20:02:54.359Z,98177.92
2018-12-22T20:05:25.865Z,98185.09
2018-12-22T20:07:57.464Z,98184.07
2018-12-22T20:10:28.969Z,98179.27
2018-12-22T20:13:00.471Z,98178.05
2018-12-22T20:15:32.063Z,98174.23
2018-12-22T20:18:03.621Z,98174.45
2018-12-22T20:20:35.062Z,98169.67
2018-12-22T20:23:06.690Z,98175.92
2018-12-22T20:25:38.187Z,98168.31
2018-12-22T20:28:09.792Z,98170.09
2018-12-22T20:30:41.301Z,98177.20
2018-12-22T20:33:12.907Z,98177.25
2018-12-22T20:35:44.394Z,98179.23
2018-12-22T20:38:15.947Z,98174.47
2018-12-22T20:40:47.497Z,98173.83
2018-12-22T20:43:19.109Z,98182.34
2018-12-22T20:45:50.597Z,98185.06
2018-12-22T20:48:22.023Z,98186.05
2018-12-22T20:50:53.608Z,98190.38
2018-12-22T20:53:25.083Z,98190.12
2018-12-22T20:55:56.822Z,98191.53
2018-12-22T20:58:28.389Z,98191.20
2018-12-22T21:00:59.932Z,98194.70
2018-12-22T21:03:42.098Z,98189.86
2018-12-22T21:06:20.626Z,98196.77
2018-12-22T21:08:52.191Z,98203.47
2018-12-22T21:11:23.638Z,98206.36
2018-12-22T21:13:55.220Z,98201.06
2018-12-22T21:16:26.767Z,98213.30
2018-12-22T21:18:58.314Z,98216.17
2018-12-22T21:21:29.830Z,98212.88
2018-12-22T21:24:01.427Z,98215.80
2018-12-22T21:26:32.842Z,98211.44
2018-12-22T21:29:04.464Z,98224.44
2018-12-22T21:31:35.947Z,98223.70
2018-12-22T21:34:07.450Z,98228.09
2018-12-22T21:36:39.051Z,98232.59
2018-12-22T21:39:10.575Z,98228.95
2018-12-22T21:41:42.155Z,98233.40
2018-12-22T21:44:13.566Z,98235.06
2018-12-22T21:46:45.106Z,98237.96
2018-12-22T21:49:16.648Z,98233.31
2018-12-22T21:51:48.096Z,98234.59
2018-12-22T21:54:19.573Z,98240.14
2018-12-22T21:56:50.980Z,98239.34
2018-12-22T21:59:22.567Z,98248.09
2018-12-22T22:01:55.827Z,98245.63
2018-12-22T22:04:27.310Z,98255.37
2018-12-22T22:06:58.862Z,98260.66
2018-12-22T22:09:30.329Z,98263.44
2018-12-22T22:12:01.977Z,98266.98
2018-12-22T22:14:33.380Z,98265.02
2018-12-22T22:17:04.904Z,98266.20
2018-12-22T22:19:36.347Z,98270.66
2018-12-22T22:22:07.887Z,98265.16
2018-12-22T22:24:39.354Z,98261.53
2018-12-22T22:27:11.000Z,98264.02
2018-12-22T22:29:42.460Z,98268.19
2018-12-22T22:32:13.987Z,98265.16
2018-12-22T22:34:45.785Z,98270.64
2018-12-22T22:37:17.503Z,98257.64
2018-12-22T22:39:49.131Z,98267.84
2018-12-22T22:42:20.633Z,98269.41
2018-12-22T22:44:52.235Z,98272.78
2018-12-22T22:47:23.637Z,98276.14
2018-12-22T22:49:55.239Z,98277.79
2018-12-22T22:52:26.746Z,98287.26
2018-12-22T22:54:58.447Z,98292.48
2018-12-22T22:57:30.161Z,98289.92
2018-12-22T23:00:01.813Z,98292.39
2018-12-22T23:02:33.378Z,98300.06
2018-12-22T23:05:04.976Z,98299.05
2018-12-22T23:07:36.777Z,98306.73
2018-12-22T23:10:08.844Z,98308.66
2018-12-22T23:12:40.391Z,98307.57
2018-12-22T23:15:11.949Z,98306.53
2018-12-22T23:17:43.504Z,98307.95
2018-12-22T23:20:14.967Z,98309.53
2018-12-22T23:22:46.504Z,98311.05
2018-12-22T23:25:17.968Z,98309.63
2018-12-22T23:27:49.523Z,98309.97
2018-12-22T23:30:20.982Z,98306.50
2018-12-22T23:32:52.564Z,98305.88
2018-12-22T23:35:23.986Z,98301.66
2018-12-22T23:37:55.578Z,98305.16
2018-12-22T23:40:26.979Z,98304.19
2018-12-22T23:42:58.592Z,98313.22
2018-12-22T23:45:30.104Z,98319.39
2018-12-22T23:48:01.706Z,98315.40
2018-12-22T23:50:33.190Z,98319.66
2018-12-22T23:53:04.808Z,98321.64
2018-12-22T23:55:36.311Z,98325.59
2018-12-22T23:58:07.914Z,98333.77
